Monticello, NY

2:16 AM EDT on April 26, 2015 (GMT -0400)
Sullivan County International | Change Station
CLOSE
Current Station
Airport
Location: Monticello,
Elevation: 1404 ft
Nearby Weather Stations

Elev 1404 ft 41.70 °N, 74.80 °W | Updated 21 minutes ago

Clear
Clear
36 °F
Feels Like 36 °F
N
0
Wind Variable Wind from North

Today
High -- | Low -- °F
--% Chance of Precip.
Yesterday
High -- | Low -- °F
Precip. -- in
6:02 AM 7:51 PM
First Quarter, 52% visible
Pressure 29.70 in
Visibility 10.0 miles
Clouds Clear
Dew Point 25 °F
Humidity 65%
Rainfall 0.00 in
Snow Depth Not available.
UV 0 out of 12
Pollen 9.80 out of 12
PM2.5 Good
Flu Activity Widespread
METAR KMSV 260555Z AUTO 00000KT 10SM CLR 02/M04 A2970 RMK AO1 10070 20020 57010

More Conditions Fewer Conditions

Pressure 29.70 in
Visibility 10.0 miles
Clouds Clear
Dew Point 25 °F
Humidity 65%
Rainfall 0.00 in
Snow Depth Not available.
UV 0 out of 12
Pollen 9.80 out of 12
PM2.5 Good
Flu Activity Widespread
METAR KMSV 260555Z AUTO 00000KT 10SM CLR 02/M04 A2970 RMK AO1 10070 20020 57010

More Conditions Fewer Conditions

10-Day Weather Forecast

Almanac

Astronomy

Apr. 26, 2015 Rise Set
Actual Time 6:02 AM EDT 7:51 PM EDT
Civil Twilight 5:32 AM EDT 8:21 PM EDT
Nautical Twilight 4:56 AM EDT 8:57 PM EDT
Astronomical Twilight 4:17 AM EDT 9:36 PM EDT
Moon 12:57 PM EDT 2:11 AM EDT
Length of Visible Light 14h 48m
Length of Day
13h 48m
Tomorrow will be 2m 31s longer.
First Quarter, 52% of the Moon is Illuminated
Today
First Quarter
May 3
Full
May 11
Last Quarter
May 18
New
May 25
First Quarter

Today's Extremes

State Highs State Lows

Community

WunderPhotos

Upload Photos

1,816,947 photos uploaded!

Nearby

Air Quality

  Air Quality AQ Index Pollutant
Yesterday Good
OZONE
Yesterday Good
PM2.5
Current Good
PM2.5
Sunday Good
PM2.5
Monday Good
PM2.5

Snow Depth

Station Depth Elevation
No new snow has been reported.

Earthquake Activity

City Distance Mag. Time & Date
No recent earthquake activity has been reported nearby.
Minimum magnitude displayed is 2.5.

Coastal Water Temperatures

Place Temperature
No Stations Reporting

Nearby Weather Stations